FDX1207 KMEM-KBHM
Flight info
| Callsign | FDX1207 |
|---|---|
| Flight time | 0h 33m |
| Altitude | 25000 |
| Route | BBKNG7 KERMI VUZ |
| Aircraft | A306/H-SDE3FGHIRWY/LB1 |
Departure
| Time | 2026-05-05 16:53 |
|---|---|
| Airport | Memphis International Airport (KMEM) |
Arrival
| Time | 2026-05-05 17:27 |
|---|---|
| Airport | Birmingham-Shuttlesworth International Airport (KBHM) |
| Time | Latitude | Longitude | Altitude | Speed | Heading |
|---|---|---|---|---|---|
| 2026-05-05 16:06 | 35.06383 | -89.97618 | 337 ft | 0 kts | 270° |
| 2026-05-05 16:44 | 35.06383 | -89.97610 | 332 ft | 4 kts | 270° |
| 2026-05-05 16:44 | 35.06383 | -89.97580 | 334 ft | 4 kts | 265° |
| 2026-05-05 16:44 | 35.06389 | -89.97554 | 331 ft | 4 kts | 217° |
| 2026-05-05 16:45 | 35.06411 | -89.97545 | 331 ft | 4 kts | 180° |
| 2026-05-05 16:45 | 35.06424 | -89.97545 | 331 ft | 1 kts | 180° |
| 2026-05-05 16:45 | 35.06425 | -89.97545 | 331 ft | 0 kts | 180° |
| 2026-05-05 16:48 | 35.06424 | -89.97545 | 331 ft | 1 kts | 180° |
| 2026-05-05 16:48 | 35.06404 | -89.97545 | 331 ft | 5 kts | 180° |
| 2026-05-05 16:48 | 35.06365 | -89.97545 | 332 ft | 6 kts | 180° |
| 2026-05-05 16:48 | 35.06304 | -89.97544 | 334 ft | 12 kts | 180° |
| 2026-05-05 16:49 | 35.06206 | -89.97543 | 334 ft | 16 kts | 179° |
| 2026-05-05 16:49 | 35.06095 | -89.97542 | 334 ft | 16 kts | 179° |
| 2026-05-05 16:49 | 35.05981 | -89.97533 | 334 ft | 17 kts | 168° |
| 2026-05-05 16:49 | 35.05870 | -89.97496 | 335 ft | 16 kts | 164° |
| 2026-05-05 16:50 | 35.05753 | -89.97484 | 334 ft | 17 kts | 183° |
| 2026-05-05 16:50 | 35.05650 | -89.97488 | 334 ft | 13 kts | 179° |
| 2026-05-05 16:50 | 35.05577 | -89.97486 | 334 ft | 9 kts | 179° |
| 2026-05-05 16:50 | 35.05522 | -89.97486 | 333 ft | 7 kts | 183° |
| 2026-05-05 16:51 | 35.05493 | -89.97503 | 329 ft | 0 kts | 223° |
| 2026-05-05 16:52 | 35.05467 | -89.97537 | 330 ft | 7 kts | 229° |
| 2026-05-05 16:52 | 35.05435 | -89.97585 | 327 ft | 7 kts | 231° |
| 2026-05-05 16:52 | 35.05405 | -89.97614 | 329 ft | 4 kts | 200° |
| 2026-05-05 16:52 | 35.05341 | -89.97617 | 327 ft | 20 kts | 178° |
| 2026-05-05 16:53 | 35.04980 | -89.97607 | 326 ft | 83 kts | 179° |
| 2026-05-05 16:53 | 35.04224 | -89.97591 | 331 ft | 135 kts | 178° |
| 2026-05-05 16:53 | 35.03127 | -89.97563 | 494 ft | 169 kts | 179° |
| 2026-05-05 16:53 | 35.02034 | -89.97594 | 1113 ft | 170 kts | 184° |
| 2026-05-05 16:54 | 35.00833 | -89.97607 | 1735 ft | 184 kts | 182° |
| 2026-05-05 16:54 | 34.99444 | -89.97497 | 2064 ft | 215 kts | 179° |
| 2026-05-05 16:54 | 34.97886 | -89.97106 | 2504 ft | 242 kts | 167° |
| 2026-05-05 16:54 | 34.96265 | -89.96363 | 3190 ft | 253 kts | 164° |
| 2026-05-05 16:55 | 34.94653 | -89.95416 | 4064 ft | 262 kts | 152° |
| 2026-05-05 16:55 | 34.93377 | -89.93796 | 5002 ft | 274 kts | 124° |
| 2026-05-05 16:55 | 34.92838 | -89.91534 | 5985 ft | 283 kts | 100° |
| 2026-05-05 16:55 | 34.92710 | -89.89141 | 6952 ft | 285 kts | 96° |
| 2026-05-05 16:56 | 34.92627 | -89.86699 | 7751 ft | 291 kts | 95° |
| 2026-05-05 16:56 | 34.92534 | -89.84204 | 8549 ft | 298 kts | 95° |
| 2026-05-05 16:56 | 34.92429 | -89.81661 | 9348 ft | 304 kts | 95° |
| 2026-05-05 16:56 | 34.92314 | -89.79057 | 10119 ft | 311 kts | 95° |
| 2026-05-05 16:57 | 34.92189 | -89.76385 | 10513 ft | 329 kts | 96° |
| 2026-05-05 16:57 | 34.92052 | -89.73516 | 10841 ft | 348 kts | 95° |
| 2026-05-05 16:57 | 34.91905 | -89.70492 | 11147 ft | 366 kts | 95° |
| 2026-05-05 16:57 | 34.91751 | -89.67325 | 11451 ft | 382 kts | 95° |
| 2026-05-05 16:58 | 34.91614 | -89.64012 | 11775 ft | 397 kts | 93° |
| 2026-05-05 16:58 | 34.91590 | -89.60655 | 12266 ft | 405 kts | 91° |
| 2026-05-05 16:58 | 34.91593 | -89.57200 | 12866 ft | 409 kts | 91° |
| 2026-05-05 16:58 | 34.91596 | -89.53710 | 13482 ft | 413 kts | 91° |
| 2026-05-05 16:59 | 34.91595 | -89.50194 | 14079 ft | 417 kts | 91° |
| 2026-05-05 16:59 | 34.91592 | -89.46643 | 14605 ft | 421 kts | 91° |
| 2026-05-05 16:59 | 34.91585 | -89.43054 | 15170 ft | 426 kts | 91° |
| 2026-05-05 16:59 | 34.91577 | -89.39429 | 15777 ft | 430 kts | 91° |
| 2026-05-05 17:00 | 34.91569 | -89.35764 | 16347 ft | 434 kts | 91° |
| 2026-05-05 17:00 | 34.91559 | -89.32081 | 16886 ft | 438 kts | 91° |
| 2026-05-05 17:00 | 34.91548 | -89.28347 | 17415 ft | 442 kts | 91° |
| 2026-05-05 17:00 | 34.91535 | -89.24588 | 17943 ft | 445 kts | 91° |
| 2026-05-05 17:01 | 34.91354 | -89.20816 | 18422 ft | 448 kts | 99° |
| 2026-05-05 17:01 | 34.90778 | -89.17069 | 18934 ft | 452 kts | 103° |
| 2026-05-05 17:01 | 34.90111 | -89.13304 | 19418 ft | 456 kts | 103° |
| 2026-05-05 17:01 | 34.89453 | -89.09494 | 19838 ft | 460 kts | 103° |
| 2026-05-05 17:02 | 34.88798 | -89.05657 | 20239 ft | 464 kts | 103° |
| 2026-05-05 17:02 | 34.88141 | -89.01796 | 20631 ft | 468 kts | 103° |
| 2026-05-05 17:02 | 34.87478 | -88.97901 | 21064 ft | 472 kts | 103° |
| 2026-05-05 17:02 | 34.86820 | -88.94027 | 21476 ft | 475 kts | 103° |
| 2026-05-05 17:03 | 34.86145 | -88.90079 | 21861 ft | 478 kts | 103° |
| 2026-05-05 17:03 | 34.85462 | -88.86094 | 22258 ft | 482 kts | 103° |
| 2026-05-05 17:03 | 34.84779 | -88.82108 | 22825 ft | 481 kts | 103° |
| 2026-05-05 17:03 | 34.84094 | -88.78120 | 23386 ft | 480 kts | 103° |
| 2026-05-05 17:04 | 34.83408 | -88.74134 | 23829 ft | 481 kts | 103° |
| 2026-05-05 17:04 | 34.82721 | -88.70152 | 24273 ft | 481 kts | 103° |
| 2026-05-05 17:04 | 34.82031 | -88.66156 | 24588 ft | 485 kts | 103° |
| 2026-05-05 17:04 | 34.81329 | -88.62110 | 24722 ft | 492 kts | 103° |
| 2026-05-05 17:05 | 34.80617 | -88.58009 | 24868 ft | 499 kts | 103° |
| 2026-05-05 17:05 | 34.79896 | -88.53858 | 24963 ft | 502 kts | 103° |
| 2026-05-05 17:05 | 34.79177 | -88.49726 | 24973 ft | 497 kts | 103° |
| 2026-05-05 17:05 | 34.78469 | -88.45670 | 24975 ft | 494 kts | 103° |
| 2026-05-05 17:06 | 34.77755 | -88.41589 | 24973 ft | 493 kts | 103° |
| 2026-05-05 17:06 | 34.77039 | -88.37511 | 24970 ft | 493 kts | 103° |
| 2026-05-05 17:06 | 34.76322 | -88.33429 | 24967 ft | 493 kts | 103° |
| 2026-05-05 17:06 | 34.75603 | -88.29349 | 24972 ft | 493 kts | 103° |
| 2026-05-05 17:07 | 34.74883 | -88.25269 | 24972 ft | 493 kts | 103° |
| 2026-05-05 17:07 | 34.74161 | -88.21182 | 24974 ft | 493 kts | 103° |
| 2026-05-05 17:07 | 34.73233 | -88.17174 | 24960 ft | 492 kts | 114° |
| 2026-05-05 17:07 | 34.71564 | -88.13587 | 24970 ft | 486 kts | 130° |
| 2026-05-05 17:08 | 34.69295 | -88.10574 | 24978 ft | 482 kts | 139° |
| 2026-05-05 17:08 | 34.66883 | -88.07744 | 24972 ft | 481 kts | 140° |
| 2026-05-05 17:08 | 34.64495 | -88.04955 | 24973 ft | 482 kts | 140° |
| 2026-05-05 17:08 | 34.62090 | -88.02119 | 24980 ft | 482 kts | 139° |
| 2026-05-05 17:09 | 34.59691 | -87.99270 | 24976 ft | 483 kts | 139° |
| 2026-05-05 17:09 | 34.57298 | -87.96419 | 24978 ft | 483 kts | 139° |
| 2026-05-05 17:09 | 34.54889 | -87.93545 | 24981 ft | 487 kts | 139° |
| 2026-05-05 17:09 | 34.52451 | -87.90636 | 24988 ft | 495 kts | 139° |
| 2026-05-05 17:10 | 34.49979 | -87.87684 | 24985 ft | 501 kts | 139° |
| 2026-05-05 17:10 | 34.47488 | -87.84710 | 24984 ft | 503 kts | 139° |
| 2026-05-05 17:10 | 34.44994 | -87.81734 | 24975 ft | 504 kts | 139° |
| 2026-05-05 17:10 | 34.42499 | -87.78758 | 24786 ft | 498 kts | 139° |
| 2026-05-05 17:11 | 34.40048 | -87.75832 | 24121 ft | 492 kts | 139° |
| 2026-05-05 17:11 | 34.37642 | -87.72964 | 23844 ft | 478 kts | 139° |
| 2026-05-05 17:11 | 34.35305 | -87.70182 | 23591 ft | 464 kts | 139° |
| 2026-05-05 17:11 | 34.33026 | -87.67473 | 23163 ft | 455 kts | 139° |
| 2026-05-05 17:12 | 34.30782 | -87.64813 | 22652 ft | 448 kts | 139° |
| 2026-05-05 17:12 | 34.28570 | -87.62190 | 22126 ft | 443 kts | 139° |
| 2026-05-05 17:12 | 34.26383 | -87.59598 | 21594 ft | 438 kts | 139° |
| 2026-05-05 17:12 | 34.24213 | -87.57028 | 21085 ft | 434 kts | 139° |
| 2026-05-05 17:13 | 34.22094 | -87.54517 | 20595 ft | 430 kts | 139° |
| 2026-05-05 17:13 | 34.19962 | -87.51996 | 20107 ft | 425 kts | 139° |
| 2026-05-05 17:13 | 34.17860 | -87.49513 | 19664 ft | 421 kts | 139° |
| 2026-05-05 17:13 | 34.15777 | -87.47058 | 19209 ft | 416 kts | 139° |
| 2026-05-05 17:14 | 34.13716 | -87.44628 | 18745 ft | 413 kts | 139° |
| 2026-05-05 17:14 | 34.11671 | -87.42215 | 18300 ft | 409 kts | 139° |
| 2026-05-05 17:14 | 34.09647 | -87.39829 | 17759 ft | 405 kts | 138° |
| 2026-05-05 17:14 | 34.08314 | -87.38259 | 17413 ft | 403 kts | 138° |
| 2026-05-05 17:15 | 34.06318 | -87.35910 | 16783 ft | 398 kts | 138° |
| 2026-05-05 17:15 | 34.04342 | -87.33588 | 16204 ft | 394 kts | 138° |
| 2026-05-05 17:15 | 34.02383 | -87.31287 | 15619 ft | 390 kts | 138° |
| 2026-05-05 17:15 | 33.99824 | -87.28276 | 14816 ft | 385 kts | 138° |
| 2026-05-05 17:16 | 33.98529 | -87.26754 | 14382 ft | 383 kts | 138° |
| 2026-05-05 17:16 | 33.96634 | -87.24521 | 13807 ft | 379 kts | 138° |
| 2026-05-05 17:16 | 33.94753 | -87.22320 | 13178 ft | 374 kts | 138° |
| 2026-05-05 17:16 | 33.92920 | -87.20179 | 12575 ft | 368 kts | 138° |
| 2026-05-05 17:17 | 33.91092 | -87.18046 | 11973 ft | 364 kts | 138° |
| 2026-05-05 17:17 | 33.89293 | -87.15944 | 11404 ft | 358 kts | 138° |
| 2026-05-05 17:17 | 33.87520 | -87.13865 | 10843 ft | 354 kts | 139° |
| 2026-05-05 17:17 | 33.85785 | -87.11833 | 10488 ft | 341 kts | 139° |
| 2026-05-05 17:18 | 33.84118 | -87.09888 | 10282 ft | 326 kts | 139° |
| 2026-05-05 17:18 | 33.82518 | -87.08025 | 10141 ft | 312 kts | 139° |
| 2026-05-05 17:18 | 33.81122 | -87.06388 | 10004 ft | 300 kts | 139° |
| 2026-05-05 17:18 | 33.79651 | -87.04663 | 9756 ft | 291 kts | 139° |
| 2026-05-05 17:19 | 33.78205 | -87.02980 | 9363 ft | 287 kts | 139° |
| 2026-05-05 17:19 | 33.76775 | -87.01319 | 8928 ft | 285 kts | 139° |
| 2026-05-05 17:19 | 33.75372 | -86.99692 | 8532 ft | 283 kts | 138° |
| 2026-05-05 17:19 | 33.73943 | -86.98017 | 8137 ft | 282 kts | 138° |
| 2026-05-05 17:20 | 33.72556 | -86.96411 | 7716 ft | 280 kts | 139° |
| 2026-05-05 17:20 | 33.71159 | -86.94791 | 7265 ft | 278 kts | 138° |
| 2026-05-05 17:20 | 33.69773 | -86.93179 | 6850 ft | 276 kts | 138° |
| 2026-05-05 17:20 | 33.68423 | -86.91556 | 6418 ft | 276 kts | 132° |
| 2026-05-05 17:21 | 33.67452 | -86.89577 | 5956 ft | 279 kts | 109° |
| 2026-05-05 17:21 | 33.67301 | -86.87256 | 5450 ft | 282 kts | 86° |
| 2026-05-05 17:21 | 33.67572 | -86.84921 | 5102 ft | 280 kts | 82° |
| 2026-05-05 17:22 | 33.68157 | -86.80450 | 4440 ft | 261 kts | 82° |
| 2026-05-05 17:22 | 33.68431 | -86.78367 | 4176 ft | 244 kts | 83° |
| 2026-05-05 17:22 | 33.68689 | -86.76396 | 3879 ft | 234 kts | 83° |
| 2026-05-05 17:22 | 33.68932 | -86.74503 | 3571 ft | 227 kts | 83° |
| 2026-05-05 17:23 | 33.69163 | -86.72667 | 3393 ft | 215 kts | 85° |
| 2026-05-05 17:23 | 33.69133 | -86.70964 | 3098 ft | 198 kts | 110° |
| 2026-05-05 17:23 | 33.68365 | -86.69676 | 2697 ft | 190 kts | 148° |
| 2026-05-05 17:23 | 33.67202 | -86.68988 | 2479 ft | 184 kts | 159° |
| 2026-05-05 17:24 | 33.66023 | -86.68438 | 2283 ft | 181 kts | 161° |
| 2026-05-05 17:24 | 33.64879 | -86.67928 | 2188 ft | 168 kts | 162° |
| 2026-05-05 17:24 | 33.63830 | -86.67439 | 2159 ft | 158 kts | 161° |
| 2026-05-05 17:24 | 33.62793 | -86.67015 | 2198 ft | 158 kts | 169° |
| 2026-05-05 17:25 | 33.61714 | -86.67057 | 2118 ft | 156 kts | 200° |
| 2026-05-05 17:25 | 33.61095 | -86.67489 | 2007 ft | 157 kts | 221° |
| 2026-05-05 17:25 | 33.60198 | -86.68844 | 1721 ft | 155 kts | 232° |
| 2026-05-05 17:25 | 33.59612 | -86.69924 | 1515 ft | 154 kts | 237° |
| 2026-05-05 17:26 | 33.59041 | -86.70992 | 1304 ft | 157 kts | 232° |
| 2026-05-05 17:26 | 33.58397 | -86.72084 | 1081 ft | 162 kts | 232° |
| 2026-05-05 17:26 | 33.57759 | -86.73203 | 852 ft | 164 kts | 234° |
| 2026-05-05 17:26 | 33.57109 | -86.74329 | 651 ft | 162 kts | 234° |
| 2026-05-05 17:27 | 33.56503 | -86.75377 | 624 ft | 138 kts | 235° |
| 2026-05-05 17:27 | 33.56054 | -86.76158 | 621 ft | 89 kts | 236° |
| 2026-05-05 17:27 | 33.55796 | -86.76607 | 624 ft | 44 kts | 235° |
| 2026-05-05 17:27 | 33.55638 | -86.76878 | 625 ft | 28 kts | 236° |
| 2026-05-05 17:28 | 33.55556 | -86.76977 | 621 ft | 12 kts | 189° |
| 2026-05-05 17:28 | 33.55505 | -86.76950 | 622 ft | 6 kts | 142° |
| 2026-05-05 17:28 | 33.55471 | -86.76919 | 620 ft | 6 kts | 142° |
| 2026-05-05 17:28 | 33.55460 | -86.76884 | 625 ft | 4 kts | 97° |
| 2026-05-05 17:29 | 33.55460 | -86.76843 | 623 ft | 5 kts | 91° |
| 2026-05-05 17:29 | 33.55459 | -86.76804 | 623 ft | 6 kts | 92° |
| 2026-05-05 17:29 | 33.55451 | -86.76743 | 626 ft | 7 kts | 123° |
| 2026-05-05 17:29 | 33.55417 | -86.76736 | 625 ft | 4 kts | 181° |
| 2026-05-05 17:30 | 33.55389 | -86.76737 | 621 ft | 3 kts | 181° |
| 2026-05-05 17:30 | 33.55386 | -86.76737 | 622 ft | 0 kts | 181° |